Time,TemperatureF,DewpointF,PressureIn,WindDirection,WindDirectionDegrees,WindSpeedMPH,WindSpeedGustMPH,Humidity,HourlyPrecipIn,Conditions,Clouds,dailyrainin,SoftwareType,DateUTC
2013-04-24 00:02:00,51.0,16.0,-100.00,ESE,118,1.0,3.0,25,-99.99,,,-99.99,,2013-04-24 07:02:00,
2013-04-24 00:11:00,50.0,16.0,-100.00,ESE,119,2.0,3.0,25,-99.99,,,-99.99,,2013-04-24 07:11:00,
2013-04-24 00:21:00,51.0,15.0,-100.00,ESE,123,3.0,4.0,23,-99.99,,,-99.99,,2013-04-24 07:21:00,
2013-04-24 00:32:00,52.0,14.0,-100.00,ESE,115,1.0,4.0,22,-99.99,,,-99.99,,2013-04-24 07:32:00,
2013-04-24 00:41:00,51.0,15.0,-100.00,ESE,104,1.0,3.0,23,-99.99,,,-99.99,,2013-04-24 07:41:00,
2013-04-24 00:52:00,50.0,16.0,-100.00,East,88,1.0,1.0,25,-99.99,,,-99.99,,2013-04-24 07:52:00,
2013-04-24 01:01:00,49.0,15.0,-100.00,ESE,102,1.0,2.0,25,-99.99,,,-99.99,,2013-04-24 08:01:00,
2013-04-24 01:11:00,48.0,15.0,-100.00,ESE,120,1.0,1.0,26,-99.99,,,-99.99,,2013-04-24 08:11:00,
2013-04-24 01:21:00,47.0,15.0,-100.00,SE,135,1.0,1.0,27,-99.99,,,-99.99,,2013-04-24 08:21:00,
2013-04-24 01:33:00,48.0,16.0,-100.00,ESE,110,1.0,1.0,27,-99.99,,,-99.99,,2013-04-24 08:33:00,
2013-04-24 01:42:00,49.0,15.0,-100.00,ESE,113,1.0,2.0,25,-99.99,,,-99.99,,2013-04-24 08:42:00,
2013-04-24 01:51:00,51.0,14.0,-100.00,ESE,122,2.0,5.0,22,-99.99,,,-99.99,,2013-04-24 08:51:00,
2013-04-24 02:01:00,52.0,14.0,-100.00,ESE,123,2.0,4.0,22,-99.99,,,-99.99,,2013-04-24 09:01:00,
2013-04-24 02:11:00,52.0,15.0,-100.00,SE,124,2.0,3.0,23,-99.99,,,-99.99,,2013-04-24 09:11:00,
2013-04-24 02:21:00,52.0,16.0,-100.00,ESE,114,1.0,2.0,24,-99.99,,,-99.99,,2013-04-24 09:21:00,
2013-04-24 02:32:00,51.0,17.0,-100.00,ESE,119,1.0,2.0,26,-99.99,,,-99.99,,2013-04-24 09:32:00,
2013-04-24 02:42:00,51.0,17.0,-100.00,SE,126,1.0,2.0,26,-99.99,,,-99.99,,2013-04-24 09:42:00,
2013-04-24 02:53:00,51.0,19.0,-100.00,ESE,117,1.0,1.0,28,-99.99,,,-99.99,,2013-04-24 09:53:00,
2013-04-24 03:02:00,50.0,20.0,-100.00,ESE,106,1.0,1.0,30,-99.99,,,-99.99,,2013-04-24 10:02:00,
2013-04-24 03:12:00,50.0,21.0,-100.00,ESE,105,1.0,1.0,31,-99.99,,,-99.99,,2013-04-24 10:12:00,
2013-04-24 03:22:00,50.0,21.0,-100.00,ESE,111,1.0,1.0,32,-99.99,,,-99.99,,2013-04-24 10:22:00,
2013-04-24 03:32:00,51.0,22.0,-100.00,ESE,108,1.0,1.0,32,-99.99,,,-99.99,,2013-04-24 10:32:00,
2013-04-24 03:42:00,51.0,21.0,-100.00,ENE,77,1.0,1.0,31,-99.99,,,-99.99,,2013-04-24 10:42:00,
2013-04-24 03:52:00,51.0,21.0,-100.00,ENE,63,1.0,1.0,30,-99.99,,,-99.99,,2013-04-24 10:52:00,
2013-04-24 04:02:00,51.0,21.0,-100.00,NNE,28,1.0,1.0,30,-99.99,,,-99.99,,2013-04-24 11:02:00,
2013-04-24 04:11:00,50.0,21.0,-100.00,NNE,32,1.0,1.0,31,-99.99,,,-99.99,,2013-04-24 11:11:00,
2013-04-24 04:21:00,50.0,21.0,-100.00,NE,34,1.0,1.0,32,-99.99,,,-99.99,,2013-04-24 11:21:00,
2013-04-24 04:32:00,50.0,23.0,-100.00,ENE,78,1.0,1.0,34,-99.99,,,-99.99,,2013-04-24 11:32:00,
2013-04-24 04:42:00,50.0,23.0,-100.00,SW,230,1.0,2.0,35,-99.99,,,-99.99,,2013-04-24 11:42:00,
2013-04-24 04:52:00,52.0,26.0,-100.00,SSW,192,2.0,6.0,36,-99.99,,,-99.99,,2013-04-24 11:52:00,
2013-04-24 05:01:00,53.0,25.0,-100.00,SSW,192,3.0,9.0,34,-99.99,,,-99.99,,2013-04-24 12:01:00,
2013-04-24 05:11:00,53.0,22.0,-100.00,SSW,198,3.0,8.0,30,-99.99,,,-99.99,,2013-04-24 12:11:00,
2013-04-24 05:22:00,53.0,23.0,-100.00,SSW,200,3.0,8.0,31,-99.99,,,-99.99,,2013-04-24 12:22:00,
2013-04-24 05:31:00,53.0,23.0,-100.00,SSW,199,4.0,11.0,31,-99.99,,,-99.99,,2013-04-24 12:31:00,
2013-04-24 05:42:00,53.0,23.0,-100.00,SSW,199,4.0,10.0,31,-99.99,,,-99.99,,2013-04-24 12:42:00,
2013-04-24 05:51:00,53.0,25.0,-100.00,SSW,198,4.0,14.0,34,-99.99,,,-99.99,,2013-04-24 12:51:00,
2013-04-24 06:00:00,54.0,27.0,-100.00,SSW,194,5.0,15.0,35,-99.99,,,-99.99,,2013-04-24 13:00:00,
2013-04-24 06:01:00,54.0,26.0,-100.00,SSW,194,6.0,13.0,34,-99.99,,,-99.99,,2013-04-24 13:01:00,
2013-04-24 06:12:00,54.0,28.0,-100.00,SSW,196,4.0,10.0,36,-99.99,,,-99.99,,2013-04-24 13:12:00,
2013-04-24 06:21:00,54.0,28.0,-100.00,SSW,198,4.0,12.0,36,-99.99,,,-99.99,,2013-04-24 13:21:00,
2013-04-24 06:31:00,54.0,27.0,-100.00,SSW,194,5.0,15.0,35,-99.99,,,-99.99,,2013-04-24 13:31:00,
2013-04-24 06:41:00,54.0,27.0,-100.00,SSW,194,5.0,15.0,35,-99.99,,,-99.99,,2013-04-24 13:41:00,
2013-04-24 06:52:00,54.0,27.0,-100.00,SSW,194,5.0,15.0,35,-99.99,,,-99.99,,2013-04-24 13:52:00,
2013-04-24 07:11:00,54.0,25.0,-100.00,South,177,6.0,12.0,32,-99.99,,,-99.99,,2013-04-24 14:11:00,
2013-04-24 07:21:00,54.0,24.0,-100.00,SSE,163,4.0,10.0,31,-99.99,,,-99.99,,2013-04-24 14:21:00,
2013-04-24 07:32:00,54.0,24.0,-100.00,SSE,163,4.0,10.0,31,-99.99,,,-99.99,,2013-04-24 14:32:00,
2013-04-24 07:41:00,54.0,23.0,-100.00,South,171,5.0,12.0,30,-99.99,,,-99.99,,2013-04-24 14:41:00,
2013-04-24 07:51:00,55.0,23.0,-100.00,South,170,5.0,15.0,29,-99.99,,,-99.99,,2013-04-24 14:51:00,
2013-04-24 08:01:00,55.0,23.0,-100.00,South,175,5.0,16.0,28,-99.99,,,-99.99,,2013-04-24 15:01:00,
2013-04-24 08:11:00,55.0,23.0,-100.00,South,175,5.0,16.0,28,-99.99,,,-99.99,,2013-04-24 15:11:00,
2013-04-24 08:21:00,55.0,24.0,-100.00,South,185,6.0,13.0,30,-99.99,,,-99.99,,2013-04-24 15:21:00,
2013-04-24 08:32:00,55.0,24.0,-100.00,South,181,7.0,16.0,30,-99.99,,,-99.99,,2013-04-24 15:32:00,
2013-04-24 08:42:00,56.0,24.0,-100.00,South,179,8.0,14.0,29,-99.99,,,-99.99,,2013-04-24 15:42:00,
2013-04-24 08:52:00,56.0,25.0,-100.00,South,182,8.0,17.0,30,-99.99,,,-99.99,,2013-04-24 15:52:00,
2013-04-24 09:03:00,57.0,26.0,-100.00,South,179,7.0,14.0,30,-99.99,,,-99.99,,2013-04-24 16:03:00,
2013-04-24 09:12:00,58.0,27.0,-100.00,South,185,4.0,12.0,30,-99.99,,,-99.99,,2013-04-24 16:12:00,
2013-04-24 09:23:00,59.0,26.0,-100.00,South,189,4.0,12.0,28,-99.99,,,-99.99,,2013-04-24 16:23:00,
2013-04-24 09:32:00,59.0,26.0,-100.00,South,189,4.0,12.0,28,-99.99,,,-99.99,,2013-04-24 16:32:00,
2013-04-24 09:42:00,59.0,24.0,-100.00,South,177,5.0,10.0,26,-99.99,,,-99.99,,2013-04-24 16:42:00,
2013-04-24 09:52:00,59.0,25.0,-100.00,SSE,159,4.0,11.0,27,-99.99,,,-99.99,,2013-04-24 16:52:00,
2013-04-24 10:02:00,60.0,25.0,-100.00,SE,144,3.0,9.0,26,-99.99,,,-99.99,,2013-04-24 17:02:00,
2013-04-24 10:12:00,60.0,24.0,-100.00,SE,129,3.0,8.0,25,-99.99,,,-99.99,,2013-04-24 17:12:00,
2013-04-24 10:22:00,61.0,24.0,-100.00,ENE,73,3.0,6.0,24,-99.99,,,-99.99,,2013-04-24 17:22:00,
2013-04-24 10:32:00,60.0,23.0,-100.00,NE,54,1.0,3.0,24,-99.99,,,-99.99,,2013-04-24 17:32:00,
2013-04-24 10:42:00,59.0,22.0,-100.00,NE,43,2.0,4.0,24,-99.99,,,-99.99,,2013-04-24 17:42:00,
2013-04-24 10:51:00,60.0,22.0,-100.00,NE,35,2.0,4.0,23,-99.99,,,-99.99,,2013-04-24 17:51:00,
2013-04-24 11:02:00,60.0,22.0,-100.00,NE,48,2.0,6.0,23,-99.99,,,-99.99,,2013-04-24 18:02:00,
2013-04-24 11:12:00,61.0,22.0,-100.00,NNE,22,3.0,6.0,22,-99.99,,,-99.99,,2013-04-24 18:12:00,
2013-04-24 11:21:00,61.0,22.0,-100.00,NE,45,2.0,6.0,22,-99.99,,,-99.99,,2013-04-24 18:21:00,
2013-04-24 11:32:00,63.0,21.0,-100.00,NNE,29,3.0,6.0,20,-99.99,,,-99.99,,2013-04-24 18:32:00,
2013-04-24 11:42:00,61.0,18.0,-100.00,NE,37,3.0,7.0,19,-99.99,,,-99.99,,2013-04-24 18:42:00,
2013-04-24 11:52:00,61.0,17.0,-100.00,NNE,27,3.0,6.0,18,-99.99,,,-99.99,,2013-04-24 18:52:00,
2013-04-24 12:01:00,62.0,17.0,-100.00,NNE,22,3.0,8.0,17,-99.99,,,-99.99,,2013-04-24 19:01:00,
2013-04-24 12:11:00,62.0,17.0,-100.00,ENE,63,3.0,6.0,17,-99.99,,,-99.99,,2013-04-24 19:11:00,
2013-04-24 12:21:00,62.0,15.0,-100.00,NNE,19,3.0,6.0,16,-99.99,,,-99.99,,2013-04-24 19:21:00,
2013-04-24 12:31:00,62.0,15.0,-100.00,NNE,25,3.0,5.0,16,-99.99,,,-99.99,,2013-04-24 19:31:00,
2013-04-24 12:42:00,61.0,14.0,-100.00,NE,52,3.0,8.0,16,-99.99,,,-99.99,,2013-04-24 19:42:00,
2013-04-24 12:52:00,62.0,15.0,-100.00,NE,44,3.0,7.0,16,-99.99,,,-99.99,,2013-04-24 19:52:00,
2013-04-24 13:01:00,62.0,15.0,-100.00,NE,44,3.0,7.0,16,-99.99,,,-99.99,,2013-04-24 20:01:00,
2013-04-24 13:11:00,62.0,14.0,-100.00,ESE,105,4.0,13.0,15,-99.99,,,-99.99,,2013-04-24 20:11:00,
2013-04-24 13:21:00,61.0,13.0,-100.00,ESE,111,3.0,9.0,15,-99.99,,,-99.99,,2013-04-24 20:21:00,
2013-04-24 13:32:00,61.0,13.0,-100.00,ESE,106,3.0,13.0,15,-99.99,,,-99.99,,2013-04-24 20:32:00,
2013-04-24 13:42:00,61.0,11.0,-100.00,NE,46,3.0,7.0,14,-99.99,,,-99.99,,2013-04-24 20:42:00,
2013-04-24 13:51:00,61.0,11.0,-100.00,NE,49,3.0,8.0,14,-99.99,,,-99.99,,2013-04-24 20:51:00,
2013-04-24 14:02:00,61.0,14.0,-100.00,NE,43,3.0,13.0,16,-99.99,,,-99.99,,2013-04-24 21:02:00,
2013-04-24 14:11:00,60.0,18.0,-100.00,ESE,109,4.0,11.0,19,-99.99,,,-99.99,,2013-04-24 21:11:00,
2013-04-24 14:21:00,61.0,21.0,-100.00,NE,35,4.0,9.0,21,-99.99,,,-99.99,,2013-04-24 21:21:00,
2013-04-24 14:32:00,61.0,23.0,-100.00,ENE,59,4.0,11.0,23,-99.99,,,-99.99,,2013-04-24 21:32:00,
2013-04-24 14:42:00,61.0,25.0,-100.00,East,95,3.0,11.0,25,-99.99,,,-99.99,,2013-04-24 21:42:00,
2013-04-24 14:52:00,61.0,27.0,-100.00,East,91,3.0,9.0,27,-99.99,,,-99.99,,2013-04-24 21:52:00,
2013-04-24 15:03:00,60.0,28.0,-100.00,ENE,68,3.0,10.0,29,-99.99,,,-99.99,,2013-04-24 22:03:00,
2013-04-24 15:12:00,60.0,28.0,-100.00,NE,52,3.0,17.0,29,-99.99,,,-99.99,,2013-04-24 22:12:00,
2013-04-24 15:22:00,61.0,28.0,-100.00,ENE,73,3.0,9.0,28,-99.99,,,-99.99,,2013-04-24 22:22:00,
2013-04-24 15:32:00,61.0,26.0,-100.00,NNE,22,3.0,10.0,26,-99.99,,,-99.99,,2013-04-24 22:32:00,
2013-04-24 15:42:00,61.0,26.0,-100.00,ENE,63,3.0,10.0,26,-99.99,,,-99.99,,2013-04-24 22:42:00,
2013-04-24 15:52:00,61.0,26.0,-100.00,ENE,61,4.0,13.0,26,-99.99,,,-99.99,,2013-04-24 22:52:00,
2013-04-24 16:02:00,61.0,28.0,-100.00,East,94,3.0,11.0,28,-99.99,,,-99.99,,2013-04-24 23:02:00,
2013-04-24 16:12:00,61.0,29.0,-100.00,NE,46,3.0,10.0,30,-99.99,,,-99.99,,2013-04-24 23:12:00,
2013-04-24 16:21:00,60.0,30.0,-100.00,East,93,4.0,13.0,32,-99.99,,,-99.99,,2013-04-24 23:21:00,
2013-04-24 16:32:00,61.0,30.0,-100.00,East,79,3.0,10.0,31,-99.99,,,-99.99,,2013-04-24 23:32:00,
2013-04-24 16:42:00,61.0,31.0,-100.00,ENE,72,4.0,14.0,32,-99.99,,,-99.99,,2013-04-24 23:42:00,
2013-04-24 16:51:00,61.0,31.0,-100.00,NNE,17,3.0,13.0,32,-99.99,,,-99.99,,2013-04-24 23:51:00,
2013-04-24 17:01:00,61.0,31.0,-100.00,ENE,75,3.0,9.0,32,-99.99,,,-99.99,,2013-04-25 00:01:00,
2013-04-24 17:12:00,60.0,32.0,-100.00,NE,40,4.0,11.0,34,-99.99,,,-99.99,,2013-04-25 00:12:00,
2013-04-24 17:22:00,60.0,32.0,-100.00,South,172,5.0,16.0,34,-99.99,,,-99.99,,2013-04-25 00:22:00,
2013-04-24 17:32:00,60.0,32.0,-100.00,ESE,102,3.0,11.0,34,-99.99,,,-99.99,,2013-04-25 00:32:00,
2013-04-24 17:41:00,60.0,32.0,-100.00,East,88,3.0,10.0,34,-99.99,,,-99.99,,2013-04-25 00:41:00,
2013-04-24 17:52:00,60.0,32.0,-100.00,NE,34,3.0,9.0,34,-99.99,,,-99.99,,2013-04-25 00:52:00,
2013-04-24 18:01:00,60.0,32.0,-100.00,ESE,103,3.0,11.0,35,-99.99,,,-99.99,,2013-04-25 01:01:00,
2013-04-24 18:11:00,60.0,34.0,-100.00,ENE,75,3.0,12.0,38,-99.99,,,-99.99,,2013-04-25 01:11:00,
2013-04-24 18:22:00,59.0,35.0,-100.00,NNE,22,3.0,6.0,40,-99.99,,,-99.99,,2013-04-25 01:22:00,
2013-04-24 18:32:00,59.0,35.0,-100.00,ESE,112,2.0,11.0,41,-99.99,,,-99.99,,2013-04-25 01:32:00,
2013-04-24 18:42:00,58.0,35.0,-100.00,ENE,59,2.0,8.0,42,-99.99,,,-99.99,,2013-04-25 01:42:00,
2013-04-24 18:52:00,57.0,35.0,-100.00,NNE,12,1.0,4.0,44,-99.99,,,-99.99,,2013-04-25 01:52:00,
2013-04-24 19:01:00,56.0,35.0,-100.00,NNE,12,2.0,6.0,45,-99.99,,,-99.99,,2013-04-25 02:01:00,
2013-04-24 19:11:00,56.0,36.0,-100.00,ESE,103,1.0,4.0,47,-99.99,,,-99.99,,2013-04-25 02:11:00,
2013-04-24 19:22:00,55.0,36.0,-100.00,ESE,109,1.0,1.0,49,-99.99,,,-99.99,,2013-04-25 02:22:00,
2013-04-24 19:32:00,53.0,42.0,-100.00,SW,222,1.0,4.0,67,-99.99,,,-99.99,,2013-04-25 02:32:00,
2013-04-24 19:42:00,53.0,42.0,-100.00,SW,222,1.0,4.0,67,-99.99,,,-99.99,,2013-04-25 02:42:00,
2013-04-24 19:51:00,53.0,42.0,-100.00,SW,222,1.0,4.0,67,-99.99,,,-99.99,,2013-04-25 02:51:00,
2013-04-24 20:02:00,48.0,43.0,-100.00,SSE,152,1.0,1.0,83,-99.99,,,-99.99,,2013-04-25 03:02:00,
2013-04-24 20:11:00,47.0,42.0,-100.00,SSE,149,1.0,1.0,83,-99.99,,,-99.99,,2013-04-25 03:11:00,
2013-04-24 20:22:00,47.0,42.0,-100.00,SE,142,1.0,1.0,84,-99.99,,,-99.99,,2013-04-25 03:22:00,
2013-04-24 20:32:00,46.0,41.0,-100.00,West,260,1.0,2.0,82,-99.99,,,-99.99,,2013-04-25 03:32:00,
2013-04-24 20:42:00,45.0,41.0,-100.00,SW,226,1.0,3.0,86,-99.99,,,-99.99,,2013-04-25 03:42:00,
2013-04-24 20:52:00,43.0,41.0,-100.00,SSW,205,1.0,5.0,92,-99.99,,,-99.99,,2013-04-25 03:52:00,
2013-04-24 21:03:00,42.0,40.0,-100.00,SW,220,1.0,3.0,94,-99.99,,,-99.99,,2013-04-25 04:03:00,
2013-04-24 21:12:00,42.0,41.0,-100.00,SW,225,1.0,3.0,95,-99.99,,,-99.99,,2013-04-25 04:12:00,
2013-04-24 21:22:00,41.0,40.0,-100.00,NW,304,1.0,2.0,95,-99.99,,,-99.99,,2013-04-25 04:22:00,
2013-04-24 21:32:00,41.0,40.0,-100.00,NE,35,1.0,1.0,96,-99.99,,,-99.99,,2013-04-25 04:32:00,
2013-04-24 21:43:00,40.0,39.0,-100.00,NNW,327,1.0,1.0,96,-99.99,,,-99.99,,2013-04-25 04:43:00,
2013-04-24 21:52:00,40.0,39.0,-100.00,SE,138,1.0,1.0,96,-99.99,,,-99.99,,2013-04-25 04:52:00,
2013-04-24 22:02:00,39.0,38.0,-100.00,North,351,1.0,1.0,95,-99.99,,,-99.99,,2013-04-25 05:02:00,
2013-04-24 22:12:00,39.0,37.0,-100.00,ENE,65,1.0,1.0,94,-99.99,,,-99.99,,2013-04-25 05:12:00,
2013-04-24 22:21:00,40.0,35.0,-100.00,WSW,248,1.0,4.0,82,-99.99,,,-99.99,,2013-04-25 05:21:00,
2013-04-24 22:31:00,39.0,32.0,-100.00,North,354,1.0,2.0,77,-99.99,,,-99.99,,2013-04-25 05:31:00,
2013-04-24 22:42:00,40.0,30.0,-100.00,NNE,32,1.0,2.0,67,-99.99,,,-99.99,,2013-04-25 05:42:00,
2013-04-24 22:51:00,41.0,27.0,-100.00,SSW,195,1.0,3.0,58,-99.99,,,-99.99,,2013-04-25 05:51:00,
2013-04-24 23:01:00,41.0,27.0,-100.00,SSW,195,1.0,3.0,58,-99.99,,,-99.99,,2013-04-25 06:01:00,
2013-04-24 23:11:00,38.0,36.0,-100.00,South,179,2.0,4.0,91,-99.99,,,-99.99,,2013-04-25 06:11:00,
2013-04-24 23:22:00,38.0,37.0,-100.00,South,173,2.0,5.0,95,-99.99,,,-99.99,,2013-04-25 06:22:00,
2013-04-24 23:31:00,38.0,37.0,-100.00,SSW,196,1.0,4.0,96,-99.99,,,-99.99,,2013-04-25 06:31:00,
2013-04-24 23:41:00,38.0,37.0,-100.00,SSW,196,1.0,4.0,96,-99.99,,,-99.99,,2013-04-25 06:41:00,
2013-04-24 23:52:00,38.0,37.0,-100.00,SW,218,1.0,5.0,97,-99.99,,,-99.99,,2013-04-25 06:52:00,